Time;durP1;ratioP1;P1;durP2;ratioP2;P2;SDS_P1;SDS_P2;PMS_P1;PMS_P2;Temp;Humidity;BMP_temperature;BMP_pressure;BME280_temperature;BME280_humidity;BME280_pressure;Samples;Min_cycle;Max_cycle;Signal;HPM_P1;HPM_P2
2021/06/22 00:00:12;;;;;;;8.63;5.80;;;;;;;20.87;63.69;93692.78;5110467;28;20088;-76
2021/06/22 00:02:38;;;;;;;9.68;6.05;;;;;;;20.90;63.32;93693.94;5109115;28;20338;-76
2021/06/22 00:05:05;;;;;;;13.93;6.00;;;;;;;20.93;63.71;93698.59;5111803;28;20020;-76
2021/06/22 00:07:31;;;;;;;11.73;6.72;;;;;;;20.94;63.57;93705.56;5114827;28;20031;-76
2021/06/22 00:09:56;;;;;;;12.23;5.72;;;;;;;20.94;63.07;93706.31;5114708;28;20175;-76
2021/06/22 00:12:22;;;;;;;18.50;6.57;;;;;;;20.94;62.92;93705.56;5099797;28;20073;-76
2021/06/22 00:14:47;;;;;;;15.82;5.90;;;;;;;20.93;63.80;93699.38;5093794;28;20044;-76
2021/06/22 00:17:13;;;;;;;9.93;5.47;;;;;;;20.95;64.13;93701.72;5092991;28;20498;-76
2021/06/22 00:19:38;;;;;;;12.27;6.32;;;;;;;20.96;64.28;93704.00;5094208;28;20032;-76
2021/06/22 00:22:04;;;;;;;12.80;5.68;;;;;;;20.97;64.43;93704.81;5088931;28;20028;-76
2021/06/22 00:24:29;;;;;;;11.57;5.15;;;;;;;20.99;64.80;93694.38;5094083;28;20024;-76
2021/06/22 00:26:55;;;;;;;8.90;6.53;;;;;;;21.00;64.43;93704.81;5092755;28;20399;-76
2021/06/22 00:29:22;;;;;;;12.73;5.43;;;;;;;21.01;63.85;93692.81;5092545;28;20020;-76
2021/06/22 00:31:48;;;;;;;8.75;5.40;;;;;;;21.01;63.68;93695.53;5093712;28;20032;-76
2021/06/22 00:34:13;;;;;;;12.18;6.10;;;;;;;21.06;64.79;93696.31;5093764;28;20201;-75
2021/06/22 00:36:39;;;;;;;15.82;6.20;;;;;;;21.08;65.12;93686.63;5093902;28;20391;-76
2021/06/22 00:39:04;;;;;;;16.58;6.70;;;;;;;21.09;64.79;93685.47;5093547;28;20038;-76
2021/06/22 00:41:30;;;;;;;14.63;6.18;;;;;;;21.11;64.90;93685.88;5092479;28;20389;-75
2021/06/22 00:44:11;;;;;;;10.45;6.05;;;;;;;21.11;64.50;93666.13;5093553;28;20399;-75
2021/06/22 00:46:37;;;;;;;16.38;6.18;;;;;;;21.12;64.52;93662.25;5093618;28;20028;-75
2021/06/22 00:49:04;;;;;;;12.77;5.13;;;;;;;21.14;64.63;93659.94;5093361;28;20058;-76
2021/06/22 00:51:29;;;;;;;9.15;5.97;;;;;;;21.13;64.61;93658.41;5093574;28;20432;-75
2021/06/22 00:53:55;;;;;;;11.88;5.97;;;;;;;21.12;64.74;93649.47;5092166;28;20056;-75
2021/06/22 00:56:22;;;;;;;9.25;5.63;;;;;;;21.12;64.90;93651.41;5104979;28;20034;-75
2021/06/22 00:58:48;;;;;;;12.63;6.07;;;;;;;21.11;64.87;93649.88;5105597;28;20039;-76
2021/06/22 01:01:14;;;;;;;12.70;5.82;;;;;;;21.07;64.35;93654.53;5093411;28;20024;-76
2021/06/22 01:03:39;;;;;;;13.50;6.25;;;;;;;21.02;63.97;93653.75;5091914;28;20051;-76
2021/06/22 01:06:05;;;;;;;10.27;6.40;;;;;;;20.99;63.95;93651.78;5093214;28;20012;-76
2021/06/22 01:08:33;;;;;;;16.13;6.55;;;;;;;20.98;64.27;93663.75;5093219;28;20453;-76
2021/06/22 01:10:58;;;;;;;13.10;6.75;;;;;;;20.93;64.47;93668.81;5091625;28;20026;-75
2021/06/22 01:13:24;;;;;;;9.23;6.43;;;;;;;20.78;64.86;93670.69;5093045;28;20044;-75
2021/06/22 01:15:49;;;;;;;12.20;5.82;;;;;;;20.65;65.58;93672.97;5091690;28;20036;-75
2021/06/22 01:18:16;;;;;;;9.35;6.53;;;;;;;20.57;65.70;93666.72;5092221;28;20020;-75
2021/06/22 01:20:42;;;;;;;14.40;6.63;;;;;;;20.49;65.89;93653.53;5092978;28;20411;-75
2021/06/22 01:23:07;;;;;;;13.27;6.78;;;;;;;20.45;65.97;93642.69;5093278;28;20024;-75
2021/06/22 01:25:34;;;;;;;11.30;6.20;;;;;;;20.36;66.30;93643.03;5092910;28;20052;-75
2021/06/22 01:28:00;;;;;;;9.23;6.07;;;;;;;20.31;66.29;93640.69;5091677;28;20024;-75
2021/06/22 01:30:28;;;;;;;14.90;6.45;;;;;;;20.30;66.13;93632.97;5091479;28;20094;-75
2021/06/22 01:32:53;;;;;;;10.25;6.05;;;;;;;20.28;66.20;93627.94;5092709;28;20035;-75
2021/06/22 01:35:19;;;;;;;11.98;5.82;;;;;;;20.28;66.25;93640.69;5092548;28;20080;-75
2021/06/22 01:38:03;;;;;;;9.25;6.22;;;;;;;20.23;66.16;93642.59;5092901;28;20028;-75
2021/06/22 01:40:29;;;;;;;12.00;6.63;;;;;;;20.21;66.43;93638.72;5092567;28;20016;-75
2021/06/22 01:42:59;;;;;;;12.00;6.07;;;;;;;20.20;66.06;93650.69;5092548;28;20407;-75
2021/06/22 01:45:25;;;;;;;13.27;6.30;;;;;;;20.09;66.90;93653.34;5092340;28;20091;-75
2021/06/22 01:47:50;;;;;;;13.00;7.85;;;;;;;19.90;67.44;93657.09;5092498;28;20511;-75
2021/06/22 01:50:16;;;;;;;10.07;6.80;;;;;;;19.81;67.91;93654.72;5092268;28;20106;-75
2021/06/22 01:52:43;;;;;;;12.88;6.93;;;;;;;19.79;68.09;93657.03;5092359;28;20024;-76
2021/06/22 01:57:55;;;;;;;21.27;6.05;;;;;;;19.70;68.68;93670.09;5092705;28;20035;-75
2021/06/22 02:00:21;;;;;;;13.73;6.80;;;;;;;19.69;68.71;93681.25;5092082;28;20073;-75
2021/06/22 02:02:46;;;;;;;12.07;7.00;;;;;;;19.69;68.78;93678.56;5092419;28;20411;-75
2021/06/22 02:05:14;;;;;;;10.23;5.88;;;;;;;19.65;68.80;93689.34;5091988;28;20031;-76
2021/06/22 02:07:39;;;;;;;10.23;6.88;;;;;;;19.66;69.04;93690.88;5092069;28;20055;-76
2021/06/22 02:10:06;;;;;;;19.85;6.75;;;;;;;19.66;68.77;93682.78;5092179;28;20125;-75
2021/06/22 02:12:32;;;;;;;11.05;6.53;;;;;;;19.59;69.28;93685.44;5091903;28;20406;-75
2021/06/22 02:14:57;;;;;;;10.07;6.35;;;;;;;19.56;69.29;93681.56;5091779;28;20066;-76
2021/06/22 02:17:22;;;;;;;11.95;6.63;;;;;;;19.57;69.18;93682.31;5091728;28;20028;-75
2021/06/22 02:19:48;;;;;;;13.70;6.78;;;;;;;19.57;69.26;93663.41;5090451;28;20483;-76
2021/06/22 02:22:13;;;;;;;9.15;6.68;;;;;;;19.60;68.71;93660.72;5090467;28;20071;-76
2021/06/22 02:24:40;;;;;;;12.40;6.93;;;;;;;19.60;69.06;93662.63;5090450;28;20487;-75
2021/06/22 02:27:06;;;;;;;14.85;6.75;;;;;;;19.60;69.06;93657.22;5090400;28;20106;-75
2021/06/22 02:29:31;;;;;;;9.30;6.18;;;;;;;19.63;69.07;93659.97;5090610;28;20522;-76
2021/06/22 02:31:57;;;;;;;10.23;6.47;;;;;;;19.68;69.44;93666.94;5108636;28;20024;-76
2021/06/22 02:34:22;;;;;;;16.08;6.50;;;;;;;19.72;68.87;93659.69;5111723;28;20453;-76
2021/06/22 02:36:48;;;;;;;16.40;7.00;;;;;;;19.74;68.73;93657.41;5111680;28;20398;-76
2021/06/22 02:39:13;;;;;;;10.52;6.07;;;;;;;19.72;68.26;93658.91;5110675;28;20023;-75
2021/06/22 02:41:38;;;;;;;12.48;6.88;;;;;;;19.76;68.07;93654.28;5111572;28;20027;-75
2021/06/22 02:44:04;;;;;;;12.05;7.28;;;;;;;19.71;68.12;93655.44;5111845;28;20032;-75
2021/06/22 02:46:29;;;;;;;10.05;6.50;;;;;;;19.69;68.33;93646.88;5110396;28;20027;-76
2021/06/22 02:49:00;;;;;;;12.35;5.82;;;;;;;19.71;68.58;93651.94;5123724;27;20129;-75
2021/06/22 02:51:25;;;;;;;12.82;6.15;;;;;;;19.74;68.73;93659.31;5106768;28;20050;-75
2021/06/22 02:53:51;;;;;;;13.38;6.82;;;;;;;19.71;68.67;93676.28;5107904;28;20084;-76
2021/06/22 02:56:17;;;;;;;12.13;7.25;;;;;;;19.74;68.73;93670.91;5108051;28;20055;-75
2021/06/22 02:58:42;;;;;;;12.40;7.57;;;;;;;19.76;68.93;93662.41;5103793;28;20376;-75
2021/06/22 03:01:07;;;;;;;13.05;6.38;;;;;;;19.77;68.82;93658.56;5106602;28;20034;-75
2021/06/22 03:03:33;;;;;;;8.80;6.45;;;;;;;19.71;68.44;93658.13;5107848;28;20031;-76
2021/06/22 03:05:58;;;;;;;14.73;7.57;;;;;;;19.70;68.59;93663.88;5106541;28;20119;-76
2021/06/22 03:08:23;;;;;;;16.08;6.47;;;;;;;19.65;68.75;93668.47;5106575;28;20076;-76
2021/06/22 03:10:49;;;;;;;16.25;7.13;;;;;;;19.63;68.99;93659.19;5107863;28;20074;-75
2021/06/22 03:13:14;;;;;;;9.70;6.18;;;;;;;19.69;68.85;93667.75;5107597;28;20030;-76
2021/06/22 03:15:40;;;;;;;14.60;6.45;;;;;;;19.73;69.07;93672.06;5107677;28;20407;-75
2021/06/22 03:18:05;;;;;;;15.63;7.10;;;;;;;19.79;68.87;93678.66;5106230;28;20028;-75
2021/06/22 03:20:31;;;;;;;20.27;7.13;;;;;;;19.77;69.11;93686.38;5107472;28;20445;-75
2021/06/22 03:22:56;;;;;;;16.58;7.45;;;;;;;19.72;69.27;93691.34;5106142;28;20479;-75
2021/06/22 03:25:21;;;;;;;12.02;7.13;;;;;;;19.74;69.10;93681.72;5106383;28;20034;-75
2021/06/22 03:27:47;;;;;;;10.90;7.47;;;;;;;19.71;69.17;93695.97;5105996;28;20032;-75
2021/06/22 03:30:13;;;;;;;12.98;7.70;;;;;;;19.65;69.95;93690.09;5106054;28;20464;-76
2021/06/22 03:32:39;;;;;;;13.00;6.15;;;;;;;19.67;69.78;93695.16;5107418;28;20085;-75
2021/06/22 03:35:07;;;;;;;10.98;6.32;;;;;;;19.72;69.43;93678.63;5107167;28;20027;-76
2021/06/22 03:37:32;;;;;;;11.68;7.43;;;;;;;19.73;69.75;93680.16;5107045;28;20027;-75
2021/06/22 03:39:58;;;;;;;11.80;6.90;;;;;;;19.77;69.39;93675.56;5107246;28;20028;-75
2021/06/22 03:42:24;;;;;;;21.30;6.65;;;;;;;19.81;69.78;93672.88;5106989;28;20106;-76
2021/06/22 03:44:49;;;;;;;9.55;6.38;;;;;;;19.86;70.39;93674.44;5107180;28;20076;-76
2021/06/22 03:47:15;;;;;;;8.70;6.50;;;;;;;19.92;70.30;93681.06;5105286;28;20040;-76
2021/06/22 03:49:40;;;;;;;10.82;7.35;;;;;;;19.96;69.19;93684.56;5106935;28;20032;-76
2021/06/22 03:52:06;;;;;;;11.25;6.57;;;;;;;19.97;68.90;93684.19;5105456;28;20031;-75
2021/06/22 03:54:31;;;;;;;10.45;6.78;;;;;;;19.97;69.24;93678.03;5106906;28;20035;-76
2021/06/22 03:56:57;;;;;;;11.98;6.53;;;;;;;19.98;69.17;93684.97;5105556;28;20024;-76
2021/06/22 03:59:22;;;;;;;12.35;7.10;;;;;;;19.99;69.12;93694.66;5097797;28;20032;-75
2021/06/22 04:01:48;;;;;;;13.77;6.95;;;;;;;19.97;69.30;93702.38;5091850;28;20040;-75
2021/06/22 04:04:13;;;;;;;15.32;7.07;;;;;;;19.94;69.20;93700.41;5092894;28;20076;-75
2021/06/22 04:06:38;;;;;;;11.73;7.00;;;;;;;19.94;69.57;93705.81;5092096;28;20024;-76
2021/06/22 04:09:04;;;;;;;14.70;7.63;;;;;;;19.98;68.80;93703.91;5092932;28;20049;-75
2021/06/22 04:11:30;;;;;;;13.90;6.82;;;;;;;20.02;68.79;93693.88;5093197;28;20058;-76
2021/06/22 04:13:55;;;;;;;18.40;7.30;;;;;;;20.03;68.95;93704.34;5091660;28;20542;-76
2021/06/22 04:16:20;;;;;;;13.75;6.57;;;;;;;20.09;69.36;93704.75;5091498;28;20024;-76
2021/06/22 04:18:46;;;;;;;16.52;7.70;;;;;;;20.13;68.83;93704.75;5091511;28;20051;-76
2021/06/22 04:21:11;;;;;;;13.25;6.80;;;;;;;20.16;68.57;93702.09;5091653;28;20022;-76
2021/06/22 04:23:37;;;;;;;16.02;7.57;;;;;;;20.23;68.88;93699.44;5091309;28;20055;-76
2021/06/22 04:26:02;;;;;;;9.00;6.85;;;;;;;20.30;68.57;93703.34;5091483;28;20093;-76
2021/06/22 04:28:28;;;;;;;15.35;7.22;;;;;;;20.35;68.43;93703.75;5092437;28;20028;-76
2021/06/22 04:30:53;;;;;;;29.10;8.30;;;;;;;20.38;68.32;93704.91;5092482;28;20034;-75
2021/06/22 04:33:18;;;;;;;13.20;7.80;;;;;;;20.41;67.63;93706.84;5092457;28;20035;-75
2021/06/22 04:35:44;;;;;;;23.30;7.57;;;;;;;20.41;68.25;93712.28;5091031;28;20051;-75
2021/06/22 04:38:10;;;;;;;16.05;7.93;;;;;;;20.45;68.25;93707.66;5091399;28;20027;-77
2021/06/22 04:40:37;;;;;;;11.70;7.22;;;;;;;20.46;68.21;93711.91;5092367;28;20028;-77
2021/06/22 04:43:04;;;;;;;10.95;6.97;;;;;;;20.50;67.99;93718.13;5092380;28;20422;-76
2021/06/22 04:45:30;;;;;;;14.45;7.85;;;;;;;20.53;67.78;93728.19;5091034;28;20016;-76
2021/06/22 04:47:56;;;;;;;13.18;7.95;;;;;;;20.58;67.44;93732.47;5090728;28;20555;-76
2021/06/22 04:50:22;;;;;;;18.60;8.48;;;;;;;20.50;68.17;93720.84;5092223;28;20108;-76
2021/06/22 04:52:48;;;;;;;15.55;7.85;;;;;;;20.48;68.72;93717.72;5092040;28;20023;-76
2021/06/22 04:55:15;;;;;;;11.77;7.05;;;;;;;20.52;68.51;93723.94;5092324;28;20020;-76
2021/06/22 04:57:45;;;;;;;14.50;7.05;;;;;;;20.58;68.42;93722.44;5090852;28;20051;-77
2021/06/22 05:00:12;;;;;;;12.68;7.22;;;;;;;20.66;68.01;93733.31;5090431;28;20082;-75
2021/06/22 05:02:42;;;;;;;20.73;8.77;;;;;;;20.70;67.38;93732.19;5089912;28;20502;-74
2021/06/22 05:05:09;;;;;;;15.43;8.00;;;;;;;20.64;67.13;93731.75;5090626;28;20050;-74
2021/06/22 05:07:34;;;;;;;15.93;8.27;;;;;;;20.64;67.58;93737.19;5091544;28;20032;-76
2021/06/22 05:10:00;;;;;;;17.42;8.10;;;;;;;20.66;68.16;93738.72;5091467;28;20494;-76
2021/06/22 05:12:25;;;;;;;23.80;8.50;;;;;;;20.70;66.99;93725.97;5089948;28;20028;-76
2021/06/22 05:14:51;;;;;;;14.27;7.38;;;;;;;20.69;67.00;93730.63;5090303;28;20035;-76
2021/06/22 05:17:16;;;;;;;15.70;7.57;;;;;;;20.71;67.25;93730.25;5091518;28;20474;-75
2021/06/22 05:19:42;;;;;;;13.43;7.88;;;;;;;20.77;67.69;93728.72;5090157;28;20055;-75
2021/06/22 05:22:08;;;;;;;19.85;8.68;;;;;;;20.74;66.25;93735.69;5090322;28;20016;-75
2021/06/22 05:24:34;;;;;;;18.13;7.90;;;;;;;20.78;66.88;93733.75;5090010;28;20031;-75
2021/06/22 05:27:00;;;;;;;17.38;7.53;;;;;;;20.77;66.79;93734.91;5090113;28;20399;-75
2021/06/22 05:29:25;;;;;;;13.45;8.23;;;;;;;20.84;66.70;93739.56;5090042;28;20035;-76
2021/06/22 05:31:50;;;;;;;17.63;8.48;;;;;;;20.93;66.46;93747.38;5089706;28;20513;-76
2021/06/22 05:34:16;;;;;;;12.95;8.43;;;;;;;20.97;67.00;93748.16;5090064;28;20020;-76
2021/06/22 05:36:41;;;;;;;11.88;8.07;;;;;;;21.03;66.57;93755.53;5091155;28;20474;-76
2021/06/22 05:39:07;;;;;;;14.15;7.70;;;;;;;21.11;66.94;93758.28;5091068;28;20023;-77
2021/06/22 05:41:32;;;;;;;16.45;7.53;;;;;;;21.20;66.12;93766.81;5089992;28;20016;-76
2021/06/22 05:43:57;;;;;;;12.27;7.72;;;;;;;21.27;65.88;93756.00;5089391;28;20031;-76
2021/06/22 05:46:23;;;;;;;20.85;7.40;;;;;;;21.34;65.93;93752.53;5089148;28;20020;-77
2021/06/22 05:48:48;;;;;;;14.27;7.32;;;;;;;21.42;65.10;93759.50;5090391;28;20483;-77
2021/06/22 05:51:14;;;;;;;11.82;7.05;;;;;;;21.47;64.57;93751.00;5090751;28;20372;-76
2021/06/22 05:53:39;;;;;;;16.05;7.20;;;;;;;21.46;65.62;93746.00;5090777;28;20026;-79
2021/06/22 05:56:05;;;;;;;15.95;7.00;;;;;;;21.52;65.34;93744.44;5089175;28;20073;-78
2021/06/22 05:58:30;;;;;;;18.70;7.47;;;;;;;21.53;65.07;93752.19;5090943;28;20119;-78
2021/06/22 06:00:56;;;;;;;18.77;7.22;;;;;;;21.54;64.71;93742.13;5089383;28;20109;-77
2021/06/22 06:03:21;;;;;;;12.63;7.80;;;;;;;21.51;64.80;93737.47;5089512;28;20020;-78
2021/06/22 06:05:47;;;;;;;17.65;7.95;;;;;;;21.57;65.64;93739.41;5089387;28;20020;-68
2021/06/22 06:08:12;;;;;;;17.73;6.72;;;;;;;21.69;66.22;93737.50;5090352;28;20411;-67
2021/06/22 06:10:38;;;;;;;9.32;7.30;;;;;;;21.83;65.29;93740.97;5090443;28;20028;-68
2021/06/22 06:13:03;;;;;;;15.45;7.30;;;;;;;22.01;64.86;93749.13;5090252;28;20086;-67
2021/06/22 06:15:29;;;;;;;12.45;7.40;;;;;;;22.26;64.05;93747.59;5089838;28;21702;-68
2021/06/22 06:17:54;;;;;;;21.05;7.80;;;;;;;22.38;64.13;93753.38;5089352;28;20393;-68
2021/06/22 06:20:20;;;;;;;16.15;7.22;;;;;;;22.58;63.23;93764.59;5089718;28;20043;-68
2021/06/22 06:22:47;;;;;;;16.13;7.65;;;;;;;22.77;62.55;93754.44;5089811;28;20024;-69
2021/06/22 06:25:14;;;;;;;15.65;7.65;;;;;;;22.81;61.05;93758.69;5088531;28;20024;-68
2021/06/22 06:27:54;;;;;;;15.20;7.47;;;;;;;22.91;61.21;93765.25;5089773;28;20024;-68
2021/06/22 06:30:23;;;;;;;12.75;6.93;;;;;;;23.00;62.26;93762.16;5088779;28;20404;-82
2021/06/22 06:32:50;;;;;;;14.35;7.88;;;;;;;23.10;61.60;93757.84;5089838;28;20043;-82
2021/06/22 06:35:17;;;;;;;27.75;8.70;;;;;;;23.21;61.07;93762.06;5089976;28;20052;-81
2021/06/22 06:37:43;;;;;;;17.17;7.43;;;;;;;23.35;60.14;93769.38;5088620;28;20035;-82
2021/06/22 06:40:09;;;;;;;17.52;7.68;;;;;;;23.48;59.81;93763.50;5088743;28;20111;-83
2021/06/22 06:42:35;;;;;;;19.65;8.10;;;;;;;23.62;59.31;93777.00;5088341;28;20031;-83
2021/06/22 06:45:01;;;;;;;24.65;8.20;;;;;;;23.72;59.54;93776.16;5089958;28;20027;-82
2021/06/22 06:47:26;;;;;;;17.20;7.82;;;;;;;23.80;58.83;93772.25;5089453;28;20075;-81
2021/06/22 06:49:52;;;;;;;14.82;8.52;;;;;;;23.84;58.02;93785.84;5088535;28;20485;-81
2021/06/22 06:52:17;;;;;;;18.45;7.75;;;;;;;23.88;57.96;93774.94;5091345;28;20495;-81
2021/06/22 06:54:43;;;;;;;15.00;7.50;;;;;;;23.86;58.04;93782.72;5089538;28;20103;-81
2021/06/22 06:57:09;;;;;;;18.17;8.63;;;;;;;23.94;57.59;93779.53;5089521;28;20020;-79
2021/06/22 06:59:35;;;;;;;11.77;7.10;;;;;;;24.05;57.54;93784.13;5089785;28;20024;-80
2021/06/22 07:02:01;;;;;;;15.35;7.50;;;;;;;24.13;57.16;93791.84;5088819;28;20034;-78
2021/06/22 07:04:26;;;;;;;14.63;8.48;;;;;;;24.07;57.29;93788.00;5090153;28;20035;-80
2021/06/22 07:06:52;;;;;;;15.02;8.57;;;;;;;24.18;57.52;93783.25;5090775;28;20036;-82
2021/06/22 07:09:17;;;;;;;16.80;7.53;;;;;;;24.30;57.16;93786.63;5090496;28;20085;-79
2021/06/22 07:11:43;;;;;;;22.25;10.02;;;;;;;24.32;56.83;93795.97;5088486;28;20111;-79
2021/06/22 07:14:08;;;;;;;28.88;8.63;;;;;;;24.29;56.71;93791.31;5088717;28;20048;-79
2021/06/22 07:16:34;;;;;;;16.00;8.23;;;;;;;24.34;56.79;93790.91;5089899;28;20053;-79
2021/06/22 07:19:02;;;;;;;22.15;7.97;;;;;;;24.39;57.32;93797.84;5088851;28;20074;-80
2021/06/22 07:21:28;;;;;;;13.38;7.75;;;;;;;24.51;57.02;93796.63;5087617;28;20027;-81
2021/06/22 07:23:53;;;;;;;21.52;7.97;;;;;;;24.58;56.60;93800.03;5090544;28;20476;-82
2021/06/22 07:26:18;;;;;;;22.10;7.80;;;;;;;24.71;56.58;93796.78;5089944;28;20080;-81
2021/06/22 07:28:44;;;;;;;16.55;7.78;;;;;;;24.79;54.95;93792.81;5088983;28;20443;-81
2021/06/22 07:31:11;;;;;;;15.45;8.02;;;;;;;24.85;55.04;93785.75;5090089;28;20032;-80
2021/06/22 07:33:37;;;;;;;14.00;7.70;;;;;;;24.89;55.45;93785.72;5090129;28;20383;-76
2021/06/22 07:36:03;;;;;;;17.73;7.32;;;;;;;24.95;55.75;93784.09;5092180;28;20027;-77
2021/06/22 07:38:28;;;;;;;17.00;8.00;;;;;;;24.94;55.89;93788.75;5093521;28;20076;-76
2021/06/22 07:40:54;;;;;;;12.10;7.75;;;;;;;24.99;55.60;93796.50;5092044;28;20039;-76
2021/06/22 07:43:20;;;;;;;17.50;7.82;;;;;;;25.07;55.52;93783.56;5093351;28;20032;-77
2021/06/22 07:45:46;;;;;;;14.38;7.40;;;;;;;25.19;55.16;93791.19;5093039;28;20030;-76
2021/06/22 07:48:11;;;;;;;18.38;7.57;;;;;;;25.37;55.02;93791.00;5091861;28;20040;-78
2021/06/22 07:50:37;;;;;;;15.82;8.25;;;;;;;25.48;54.14;93790.88;5091819;28;20039;-76
2021/06/22 07:53:04;;;;;;;22.58;8.02;;;;;;;25.48;54.03;93788.13;5092949;28;20035;-75
2021/06/22 07:55:30;;;;;;;16.17;7.80;;;;;;;25.64;53.86;93787.53;5091626;28;20081;-75
2021/06/22 07:57:56;;;;;;;16.48;7.82;;;;;;;25.69;53.36;93792.56;5091530;28;20028;-75
2021/06/22 08:00:41;;;;;;;27.20;8.85;;;;;;;25.64;53.19;93806.63;5092987;28;20096;-76
2021/06/22 08:03:08;;;;;;;26.85;9.80;;;;;;;25.35;53.70;93804.28;5092668;28;20034;-78
2021/06/22 08:05:34;;;;;;;19.55;9.35;;;;;;;25.49;53.55;93799.84;5091575;28;20031;-76
2021/06/22 08:07:59;;;;;;;26.25;8.70;;;;;;;25.56;54.68;93794.28;5092587;28;20020;-77
2021/06/22 08:10:25;;;;;;;18.92;8.90;;;;;;;25.52;53.82;93788.84;5093056;28;20103;-77
2021/06/22 08:12:50;;;;;;;21.70;7.90;;;;;;;25.49;53.76;93780.75;5092828;28;20032;-79
2021/06/22 08:15:16;;;;;;;23.50;8.57;;;;;;;25.45;53.88;93793.66;5092754;28;20111;-79
2021/06/22 08:17:42;;;;;;;17.27;8.13;;;;;;;25.46;53.71;93793.22;5091289;28;20055;-78
2021/06/22 08:20:08;;;;;;;19.80;9.18;;;;;;;25.49;53.46;93780.75;5092624;28;20114;-77
2021/06/22 08:22:34;;;;;;;24.52;8.77;;;;;;;25.48;54.07;93773.72;5091228;28;20522;-77
2021/06/22 08:24:59;;;;;;;25.33;8.23;;;;;;;25.57;53.69;93779.47;5092700;28;20111;-78
2021/06/22 08:27:24;;;;;;;26.90;8.68;;;;;;;25.62;53.46;93781.72;5091444;28;20059;-78
2021/06/22 08:29:50;;;;;;;21.60;7.47;;;;;;;25.76;53.24;93786.22;5091485;28;20023;-79
2021/06/22 08:32:15;;;;;;;21.90;8.88;;;;;;;25.79;53.09;93783.44;5091192;28;20464;-77
2021/06/22 08:34:41;;;;;;;18.58;7.47;;;;;;;25.82;53.92;93779.88;5091455;28;20036;-82
2021/06/22 08:37:07;;;;;;;21.25;7.93;;;;;;;25.95;54.06;93785.56;5091567;28;20103;-72
2021/06/22 08:39:34;;;;;;;19.73;8.80;;;;;;;26.16;52.91;93781.72;5092626;28;20028;-72
2021/06/22 08:42:01;;;;;;;29.10;8.80;;;;;;;26.22;52.17;93777.34;5092462;28;20047;-72
2021/06/22 08:44:29;;;;;;;21.85;7.53;;;;;;;26.39;52.66;93782.91;5090042;28;20032;-75
2021/06/22 08:46:56;;;;;;;21.08;7.55;;;;;;;26.41;52.82;93777.81;5092337;28;20063;-74
2021/06/22 08:49:21;;;;;;;27.20;7.65;;;;;;;26.56;52.98;93783.78;5090673;28;20032;-73
2021/06/22 08:51:47;;;;;;;31.48;7.93;;;;;;;26.64;52.01;93779.00;5091887;28;20035;-73
2021/06/22 08:54:13;;;;;;;20.38;8.68;;;;;;;26.72;51.51;93788.63;5092213;28;20027;-74
2021/06/22 08:56:38;;;;;;;18.50;7.68;;;;;;;26.73;51.25;93777.28;5090666;28;20028;-74
2021/06/22 08:59:03;;;;;;;19.33;7.25;;;;;;;26.73;50.44;93784.72;5092018;28;20145;-74
2021/06/22 09:01:29;;;;;;;24.67;7.20;;;;;;;26.79;50.29;93788.50;5091946;28;20032;-73
2021/06/22 09:03:54;;;;;;;21.67;8.13;;;;;;;26.81;50.71;93786.13;5091964;28;20509;-74
2021/06/22 09:06:25;;;;;;;24.98;8.02;;;;;;;26.87;50.22;93789.91;5091921;28;20168;-74
2021/06/22 09:08:52;;;;;;;27.63;7.75;;;;;;;26.92;49.66;93781.22;5091789;28;20030;-74
2021/06/22 09:11:17;;;;;;;16.35;7.65;;;;;;;26.96;50.64;93784.66;5091753;28;20157;-75
2021/06/22 09:13:54;;;;;;;21.45;7.35;;;;;;;26.98;49.97;93779.53;5090323;28;20526;-74
2021/06/22 09:16:20;;;;;;;20.25;8.20;;;;;;;26.94;49.46;93789.78;5089229;28;20128;-74
2021/06/22 09:18:45;;;;;;;15.80;8.02;;;;;;;26.96;49.76;93787.38;5091294;28;20533;-73
2021/06/22 09:21:13;;;;;;;24.88;8.27;;;;;;;26.86;49.11;93785.63;5090415;28;20055;-75
2021/06/22 09:23:40;;;;;;;25.98;7.82;;;;;;;26.94;49.75;93784.31;5091317;28;20060;-73
2021/06/22 09:26:11;;;;;;;30.90;8.00;;;;;;;27.08;50.30;93785.22;5091483;28;20107;-73
2021/06/22 09:28:37;;;;;;;23.42;7.93;;;;;;;27.17;49.73;93778.00;5091163;28;20019;-75
2021/06/22 09:31:08;;;;;;;21.27;7.47;;;;;;;27.30;50.49;93778.16;5090033;28;20035;-74
2021/06/22 09:33:41;;;;;;;15.63;6.90;;;;;;;27.26;49.54;93782.94;5089559;28;20403;-74
2021/06/22 09:36:08;;;;;;;20.63;8.15;;;;;;;27.32;49.80;93788.69;5090853;28;20016;-76
2021/06/22 09:38:52;;;;;;;17.48;7.05;;;;;;;27.52;50.37;93774.97;5090860;28;20178;-75
2021/06/22 09:41:28;;;;;;;21.27;7.25;;;;;;;27.74;49.76;93780.75;5090260;28;20432;-74
2021/06/22 09:44:12;;;;;;;19.63;7.65;;;;;;;28.04;49.33;93785.19;5089359;28;20055;-75
2021/06/22 09:46:38;;;;;;;48.90;11.25;;;;;;;28.29;48.77;93792.03;5088297;28;20034;-75
2021/06/22 09:49:09;;;;;;;28.48;9.15;;;;;;;28.42;46.89;93777.22;5090682;28;20028;-74
2021/06/22 09:52:19;;;;;;;18.60;8.55;;;;;;;28.53;47.98;93782.47;5089598;28;20028;-76
2021/06/22 09:54:42;;;;;;;21.13;7.35;;;;;;;28.75;48.13;93781.91;5087535;28;20039;-74
2021/06/22 09:57:20;;;;;;;15.23;7.13;;;;;;;28.80;47.31;93781.38;5087063;28;20081;-74
2021/06/22 09:59:53;;;;;;;23.95;7.85;;;;;;;29.00;47.38;93787.53;5088331;28;20020;-74
2021/06/22 10:02:24;;;;;;;21.08;8.30;;;;;;;29.22;47.00;93784.19;5085742;28;20027;-73
2021/06/22 10:04:56;;;;;;;22.17;7.82;;;;;;;29.35;45.70;93785.03;5089118;28;20059;-74
2021/06/22 10:07:23;;;;;;;25.05;7.90;;;;;;;29.49;45.61;93788.53;5089437;28;20399;-74
2021/06/22 10:10:07;;;;;;;19.50;8.27;;;;;;;29.72;45.11;93774.56;5088172;28;20028;-74
2021/06/22 10:12:37;;;;;;;22.17;8.30;;;;;;;29.90;45.60;93778.72;5088784;28;20056;-74
2021/06/22 10:15:03;;;;;;;23.85;8.48;;;;;;;30.10;45.24;93775.75;5089232;28;20112;-74
2021/06/22 10:17:31;;;;;;;21.75;7.55;;;;;;;30.29;44.75;93774.75;5089829;28;20020;-76
2021/06/22 10:19:58;;;;;;;23.20;8.15;;;;;;;30.43;42.01;93772.75;5088706;28;20024;-74
2021/06/22 10:22:27;;;;;;;23.52;8.07;;;;;;;30.25;42.04;93776.84;5090528;28;20032;-74
2021/06/22 10:24:57;;;;;;;31.08;8.52;;;;;;;30.24;42.54;93769.81;5088264;28;20055;-74
2021/06/22 10:27:23;;;;;;;19.08;7.70;;;;;;;30.30;43.49;93762.56;5088324;28;20081;-74
2021/06/22 10:29:53;;;;;;;25.85;7.45;;;;;;;30.43;42.59;93764.50;5088411;28;20027;-75
2021/06/22 10:32:20;;;;;;;24.92;8.80;;;;;;;30.57;43.63;93759.34;5091635;28;20024;-79
2021/06/22 10:34:51;;;;;;;30.40;7.47;;;;;;;30.75;43.40;93752.44;5089599;28;20035;-76
2021/06/22 10:37:22;;;;;;;26.25;8.45;;;;;;;30.92;43.65;93753.84;5090250;28;20031;-75
2021/06/22 10:39:54;;;;;;;25.42;8.07;;;;;;;31.06;42.17;93754.53;5088713;28;20110;-75
2021/06/22 10:42:20;;;;;;;;;;;;;;;31.22;42.19;93754.34;5090233;28;20032;-77
2021/06/22 10:44:49;;;;;;;22.58;7.78;;;;;;;31.27;42.35;93764.78;5089864;28;19999;-74
2021/06/22 10:47:28;;;;;;;20.92;7.45;;;;;;;31.41;41.17;93752.47;5090170;28;20067;-74
2021/06/22 10:50:01;;;;;;;26.13;8.85;;;;;;;31.50;40.80;93743.53;5088585;28;20085;-74
2021/06/22 10:52:50;;;;;;;17.50;8.27;;;;;;;31.56;41.29;93759.00;5089397;28;20028;-75
2021/06/22 10:55:43;;;;;;;26.73;7.72;;;;;;;31.58;39.91;93750.31;5089348;28;20055;-74
2021/06/22 10:58:13;;;;;;;29.30;7.43;;;;;;;31.75;39.79;93748.88;5091157;28;20486;-73
2021/06/22 11:00:38;;;;;;;29.48;7.97;;;;;;;31.84;38.67;93753.63;5089697;28;20390;-74
2021/06/22 11:03:06;;;;;;;42.35;8.30;;;;;;;31.85;37.89;93751.66;5088238;28;20127;-72
2021/06/22 11:05:34;;;;;;;23.98;7.78;;;;;;;31.81;37.24;93745.50;5089835;28;20032;-74
2021/06/22 11:08:11;;;;;;;21.13;7.68;;;;;;;31.90;37.92;93751.06;5089627;28;20036;-74
2021/06/22 11:10:39;;;;;;;28.85;7.40;;;;;;;31.94;37.33;93746.94;5089509;28;20039;-74
2021/06/22 11:13:05;;;;;;;34.75;7.88;;;;;;;32.03;37.50;93745.47;5092172;28;20032;-73
2021/06/22 11:15:51;;;;;;;30.98;8.05;;;;;;;32.12;38.51;93746.28;5092373;28;20095;-73
2021/06/22 11:18:20;;;;;;;31.92;9.10;;;;;;;32.26;38.05;93758.72;5093052;28;20103;-73
2021/06/22 11:21:06;;;;;;;24.55;7.43;;;;;;;32.40;37.68;93754.59;5092365;28;20081;-75
2021/06/22 11:24:02;;;;;;;44.40;8.20;;;;;;;32.44;33.97;93748.94;5085056;28;20039;-75
2021/06/22 11:26:47;;;;;;;35.90;7.55;;;;;;;32.53;35.63;93746.19;5091179;28;20130;-78
2021/06/22 11:29:15;;;;;;;29.00;7.03;;;;;;;32.53;34.99;93744.19;5092939;28;20036;-76